createdAt,value
2019-01-08T00:01:47.244Z,5.97
2019-01-08T00:04:16.598Z,6.17
2019-01-08T00:06:45.891Z,5.90
2019-01-08T00:09:15.232Z,6.03
2019-01-08T00:11:44.545Z,4.93
2019-01-08T00:14:13.901Z,4.93
2019-01-08T00:16:43.193Z,5.63
2019-01-08T00:19:12.482Z,5.27
2019-01-08T00:21:41.773Z,7.30
2019-01-08T00:24:11.089Z,9.23
2019-01-08T00:26:40.393Z,10.47
2019-01-08T00:29:09.702Z,8.83
2019-01-08T00:31:38.984Z,7.57
2019-01-08T00:34:08.311Z,9.07
2019-01-08T00:36:37.677Z,9.30
2019-01-08T00:39:07.729Z,9.77
2019-01-08T00:41:37.079Z,11.90
2019-01-08T00:44:06.411Z,6.50
2019-01-08T00:46:35.751Z,11.00
2019-01-08T00:49:05.117Z,11.17
2019-01-08T00:51:34.411Z,10.70
2019-01-08T00:54:03.710Z,11.17
2019-01-08T00:56:33.015Z,8.70
2019-01-08T00:59:02.309Z,11.17
2019-01-08T01:01:31.670Z,9.97
2019-01-08T01:04:01.017Z,12.90
2019-01-08T01:06:30.329Z,11.63
2019-01-08T01:08:59.700Z,10.00
2019-01-08T01:11:28.987Z,11.87
2019-01-08T01:13:58.267Z,11.13
2019-01-08T01:16:27.536Z,10.87
2019-01-08T01:18:56.832Z,11.30
2019-01-08T01:21:26.117Z,5.80
2019-01-08T01:23:55.381Z,12.17
2019-01-08T01:26:24.697Z,12.27
2019-01-08T01:28:59.903Z,8.40
2019-01-08T01:31:23.290Z,12.83
2019-01-08T01:33:52.602Z,14.97
2019-01-08T01:36:21.884Z,12.70
2019-01-08T01:38:51.161Z,13.80
2019-01-08T01:41:20.444Z,15.17
2019-01-08T01:43:49.797Z,12.53
2019-01-08T01:46:19.072Z,15.93
2019-01-08T01:48:48.393Z,23.33
2019-01-08T01:51:17.686Z,16.37
2019-01-08T01:53:46.955Z,17.80
2019-01-08T01:56:16.222Z,12.27
2019-01-08T01:58:45.615Z,13.17
2019-01-08T02:01:14.867Z,16.13
2019-01-08T02:03:44.182Z,15.27
2019-01-08T02:06:13.403Z,14.00
2019-01-08T02:08:42.723Z,13.30
2019-01-08T02:11:12.003Z,15.37
2019-01-08T02:13:41.403Z,17.33
2019-01-08T02:16:10.645Z,16.33
2019-01-08T02:18:39.965Z,20.77
2019-01-08T02:21:09.240Z,15.77
2019-01-08T02:23:38.503Z,14.37
2019-01-08T02:26:07.813Z,20.40
2019-01-08T02:28:37.095Z,16.03
2019-01-08T02:31:06.418Z,14.17
2019-01-08T02:33:35.678Z,14.00
2019-01-08T02:36:04.962Z,18.90
2019-01-08T02:38:34.743Z,18.77
2019-01-08T02:41:06.837Z,21.10
2019-01-08T02:43:36.142Z,17.13
2019-01-08T02:46:05.567Z,15.63
2019-01-08T02:48:34.673Z,9.43
2019-01-08T02:51:03.973Z,19.50
2019-01-08T02:53:33.359Z,22.47
2019-01-08T02:56:02.703Z,16.00
2019-01-08T02:58:32.025Z,12.13
2019-01-08T03:01:01.347Z,18.83
2019-01-08T03:03:30.695Z,15.90
2019-01-08T03:05:59.997Z,22.83
2019-01-08T03:08:29.281Z,18.90
2019-01-08T03:10:58.528Z,17.13
2019-01-08T03:13:27.831Z,18.63
2019-01-08T03:15:57.060Z,18.47
2019-01-08T03:18:26.295Z,18.10
2019-01-08T03:20:55.576Z,15.97
2019-01-08T03:23:24.881Z,18.27
2019-01-08T03:25:54.268Z,21.20
2019-01-08T03:28:23.493Z,20.67
2019-01-08T03:30:52.792Z,29.63
2019-01-08T03:33:22.067Z,29.70
2019-01-08T03:35:51.326Z,24.03
2019-01-08T03:38:20.583Z,25.40
2019-01-08T03:40:49.866Z,24.63
2019-01-08T03:43:19.116Z,21.37
2019-01-08T03:45:48.432Z,23.77
2019-01-08T03:48:17.695Z,19.93
2019-01-08T03:50:47.001Z,21.87
2019-01-08T03:53:16.274Z,23.20
2019-01-08T03:55:45.617Z,26.97
2019-01-08T03:58:14.887Z,23.43
2019-01-08T04:00:44.186Z,27.63
2019-01-08T04:03:13.451Z,20.37
2019-01-08T04:05:42.698Z,26.00
2019-01-08T04:08:12.046Z,14.67
2019-01-08T04:10:41.468Z,23.63
2019-01-08T04:13:10.720Z,24.80
2019-01-08T04:15:39.996Z,20.10
2019-01-08T04:18:09.264Z,20.37
2019-01-08T04:20:38.576Z,23.63
2019-01-08T04:23:07.829Z,14.27
2019-01-08T04:25:37.124Z,15.20
2019-01-08T04:28:06.379Z,17.17
2019-01-08T04:30:35.654Z,10.70
2019-01-08T04:33:05.040Z,19.30
2019-01-08T04:35:34.298Z,11.20
2019-01-08T04:38:03.594Z,12.63
2019-01-08T04:40:32.832Z,17.33
2019-01-08T04:43:02.094Z,12.20
2019-01-08T04:45:31.379Z,11.70
2019-01-08T04:48:00.715Z,11.33
2019-01-08T04:50:30.000Z,16.83
2019-01-08T04:52:59.337Z,14.77
2019-01-08T04:55:28.632Z,18.47
2019-01-08T04:57:57.940Z,20.70
2019-01-08T05:00:27.182Z,18.37
2019-01-08T05:02:56.538Z,13.93
2019-01-08T05:05:25.788Z,19.53
2019-01-08T05:07:55.066Z,15.67
2019-01-08T05:10:24.346Z,19.73
2019-01-08T05:12:53.629Z,13.20
2019-01-08T05:15:22.967Z,17.27
2019-01-08T05:17:52.236Z,15.33
2019-01-08T05:20:21.513Z,16.67
2019-01-08T05:22:52.303Z,18.07
2019-01-08T05:25:21.487Z,22.17
2019-01-08T05:27:50.806Z,18.07
2019-01-08T05:30:20.117Z,14.87
2019-01-08T05:32:49.418Z,14.33
2019-01-08T05:35:18.746Z,17.50
2019-01-08T05:37:48.059Z,21.63
2019-01-08T05:40:17.396Z,17.90
2019-01-08T05:42:46.706Z,24.07
2019-01-08T05:45:15.984Z,15.23
2019-01-08T05:47:45.325Z,26.60
2019-01-08T05:50:14.625Z,17.80
2019-01-08T05:52:43.891Z,25.77
2019-01-08T05:55:13.128Z,14.50
2019-01-08T05:57:42.499Z,20.03
2019-01-08T06:00:16.335Z,26.20
2019-01-08T06:02:41.077Z,24.40
2019-01-08T06:05:10.328Z,14.40
2019-01-08T06:07:39.627Z,18.97
2019-01-08T06:10:09.590Z,17.47
2019-01-08T06:12:38.851Z,13.30
2019-01-08T06:15:08.096Z,19.70
2019-01-08T06:17:37.431Z,21.00
2019-01-08T06:20:06.924Z,20.27
2019-01-08T06:22:36.183Z,11.33
2019-01-08T06:25:05.641Z,13.93
2019-01-08T06:27:34.924Z,17.50
2019-01-08T06:30:04.532Z,21.03
2019-01-08T06:32:33.913Z,17.63
2019-01-08T06:35:03.248Z,9.70
2019-01-08T06:37:32.491Z,12.20
2019-01-08T06:40:01.836Z,7.77
2019-01-08T06:42:31.105Z,11.33
2019-01-08T06:45:00.397Z,13.10
2019-01-08T06:47:30.304Z,13.53
2019-01-08T06:49:59.083Z,16.80
2019-01-08T06:52:28.424Z,11.77
2019-01-08T06:54:57.745Z,13.17
2019-01-08T06:57:27.006Z,11.57
2019-01-08T06:59:56.359Z,14.27
2019-01-08T07:02:25.649Z,15.43
2019-01-08T07:04:54.913Z,15.20
2019-01-08T07:07:24.196Z,10.07
2019-01-08T07:09:53.529Z,20.17
2019-01-08T07:12:22.769Z,16.53
2019-01-08T07:14:52.040Z,12.97
2019-01-08T07:17:21.308Z,17.87
2019-01-08T07:19:50.765Z,19.20
2019-01-08T07:22:20.141Z,19.93
2019-01-08T07:24:49.439Z,18.10
2019-01-08T07:27:18.694Z,19.00
2019-01-08T07:29:47.985Z,12.70
2019-01-08T07:32:17.268Z,20.80
2019-01-08T07:34:46.622Z,14.83
2019-01-08T07:37:16.009Z,25.17
2019-01-08T07:39:45.352Z,13.27
2019-01-08T07:42:14.783Z,19.37
2019-01-08T07:44:44.039Z,19.20
2019-01-08T07:47:13.321Z,19.40
2019-01-08T07:49:42.581Z,13.43
2019-01-08T07:52:11.967Z,14.40
2019-01-08T07:54:41.265Z,22.97
2019-01-08T07:57:10.559Z,16.63
2019-01-08T07:59:39.886Z,10.57
2019-01-08T08:02:09.255Z,17.33
2019-01-08T08:04:38.574Z,19.33
2019-01-08T08:07:07.884Z,14.07
2019-01-08T08:09:37.197Z,18.07
2019-01-08T08:12:06.475Z,12.07
2019-01-08T08:14:35.793Z,11.53
2019-01-08T08:17:05.031Z,14.90
2019-01-08T08:19:34.265Z,12.03
2019-01-08T08:22:03.598Z,12.53
2019-01-08T08:24:32.875Z,17.13
2019-01-08T08:27:02.199Z,18.63
2019-01-08T08:29:31.589Z,14.73
2019-01-08T08:32:00.903Z,13.67
2019-01-08T08:34:30.287Z,17.63
2019-01-08T08:36:59.548Z,14.77
2019-01-08T08:39:28.799Z,19.10
2019-01-08T08:41:58.074Z,21.80
2019-01-08T08:44:27.383Z,13.30
2019-01-08T08:46:56.822Z,19.93
2019-01-08T08:49:26.101Z,13.47
2019-01-08T08:51:55.376Z,13.87
2019-01-08T08:54:24.648Z,16.40
2019-01-08T08:56:54.015Z,15.67
2019-01-08T08:59:23.261Z,14.27
2019-01-08T09:01:52.603Z,11.47
2019-01-08T09:04:21.921Z,24.97
2019-01-08T09:06:51.288Z,13.97
2019-01-08T09:09:20.631Z,15.07
2019-01-08T09:11:49.904Z,15.67
2019-01-08T09:14:19.194Z,18.13
2019-01-08T09:16:48.455Z,24.63
2019-01-08T09:19:17.871Z,20.80
2019-01-08T09:21:47.165Z,17.70
2019-01-08T09:24:16.479Z,16.87
2019-01-08T09:26:45.780Z,20.97
2019-01-08T09:29:15.071Z,16.27
2019-01-08T09:31:44.365Z,16.87
2019-01-08T09:34:13.705Z,14.80
2019-01-08T09:36:43.022Z,18.67
2019-01-08T09:39:12.325Z,12.50
2019-01-08T09:41:41.627Z,23.53
2019-01-08T09:44:10.885Z,13.07
2019-01-08T09:46:40.156Z,14.23
2019-01-08T09:49:09.541Z,17.30
2019-01-08T09:51:38.796Z,12.57
2019-01-08T09:54:08.100Z,11.73
2019-01-08T09:56:37.425Z,18.20
2019-01-08T09:59:06.730Z,11.87
2019-01-08T10:01:36.045Z,12.57
2019-01-08T10:04:05.286Z,7.70
2019-01-08T10:06:34.584Z,9.60
2019-01-08T10:09:04.424Z,7.47
2019-01-08T10:11:33.793Z,7.90
2019-01-08T10:14:03.158Z,6.63
2019-01-08T10:16:32.451Z,9.93
2019-01-08T10:19:01.705Z,12.07
2019-01-08T10:21:31.017Z,14.30
2019-01-08T10:24:02.030Z,7.83
2019-01-08T10:26:29.676Z,11.43
2019-01-08T10:28:59.052Z,11.90
2019-01-08T10:31:32.581Z,10.53
2019-01-08T10:33:57.695Z,8.47
2019-01-08T10:36:26.901Z,8.17
2019-01-08T10:38:56.188Z,8.30
2019-01-08T10:41:25.431Z,7.17
2019-01-08T10:43:54.719Z,8.87
2019-01-08T10:46:23.979Z,5.07
2019-01-08T10:48:53.249Z,3.77
2019-01-08T10:51:22.559Z,2.67
2019-01-08T10:53:51.888Z,4.47
2019-01-08T10:56:21.206Z,4.50
2019-01-08T10:58:50.483Z,4.40
2019-01-08T11:01:20.186Z,6.20
2019-01-08T11:03:49.625Z,5.73
2019-01-08T11:06:18.969Z,4.67
2019-01-08T11:08:48.321Z,8.00
2019-01-08T11:11:17.584Z,3.60
2019-01-08T11:13:46.901Z,8.97
2019-01-08T11:16:16.276Z,16.07
2019-01-08T11:18:45.638Z,18.37
2019-01-08T11:21:14.933Z,17.00
2019-01-08T11:23:44.703Z,17.70
2019-01-08T11:26:13.952Z,20.77
2019-01-08T11:28:43.337Z,25.00
2019-01-08T11:31:12.607Z,23.73
2019-01-08T11:33:41.878Z,24.47
2019-01-08T11:36:11.155Z,19.90
2019-01-08T11:38:40.453Z,27.33
2019-01-08T11:41:09.699Z,31.90
2019-01-08T11:43:38.965Z,27.00
2019-01-08T11:46:08.297Z,30.03
2019-01-08T11:48:37.569Z,9.63
2019-01-08T11:52:10.972Z,11.20
2019-01-08T12:10:59.797Z,12.03
2019-01-08T12:16:04.119Z,0.00
2019-01-08T12:19:54.201Z,0.00
2019-01-08T12:34:03.387Z,0.00
2019-01-08T12:36:43.794Z,18.37
2019-01-08T12:40:46.492Z,22.27
2019-01-08T13:29:44.661Z,23.77
2019-01-08T14:43:20.544Z,30.67
2019-01-08T14:51:14.965Z,22.53
2019-01-08T15:06:57.785Z,28.30
2019-01-08T15:09:29.533Z,17.63
2019-01-08T15:23:18.687Z,10.87
2019-01-08T15:55:46.662Z,19.97
2019-01-08T16:09:03.715Z,29.07
2019-01-08T16:12:58.886Z,22.97
2019-01-08T16:31:56.255Z,28.43
2019-01-08T16:35:16.348Z,17.17
2019-01-08T16:47:06.110Z,12.43
2019-01-08T16:49:35.416Z,10.70
2019-01-08T16:52:04.707Z,14.23
2019-01-08T16:54:34.046Z,15.57
2019-01-08T16:57:03.305Z,9.97
2019-01-08T16:59:32.626Z,18.90
2019-01-08T17:02:01.918Z,10.17
2019-01-08T17:04:31.235Z,11.27
2019-01-08T17:07:00.542Z,8.60
2019-01-08T17:09:29.926Z,10.17
2019-01-08T17:11:59.244Z,12.73
2019-01-08T17:14:28.563Z,15.03
2019-01-08T17:16:57.842Z,12.23
2019-01-08T17:19:27.105Z,11.67
2019-01-08T17:21:56.585Z,11.70
2019-01-08T17:24:25.878Z,17.27
2019-01-08T17:26:55.147Z,15.60
2019-01-08T17:29:24.479Z,13.43
2019-01-08T17:31:53.751Z,15.60
2019-01-08T17:34:23.082Z,17.20
2019-01-08T17:36:52.372Z,9.67
2019-01-08T17:39:21.737Z,10.07
2019-01-08T17:41:51.029Z,12.53
2019-01-08T17:44:20.529Z,7.77
2019-01-08T17:46:50.027Z,6.40
2019-01-08T17:49:19.365Z,7.93
2019-01-08T17:51:48.672Z,8.17
2019-01-08T17:54:18.103Z,5.47
2019-01-08T17:56:47.413Z,9.67
2019-01-08T17:59:18.893Z,6.53
2019-01-08T18:01:56.908Z,6.90
2019-01-08T18:04:26.153Z,6.20
2019-01-08T18:06:55.589Z,9.00
2019-01-08T18:09:24.944Z,3.53
2019-01-08T18:11:54.389Z,8.23
2019-01-08T18:14:23.697Z,8.17
2019-01-08T18:16:53.359Z,5.47
2019-01-08T18:19:22.588Z,4.47
2019-01-08T18:21:51.878Z,10.43
2019-01-08T18:24:21.178Z,4.90
2019-01-08T18:26:50.862Z,6.37
2019-01-08T18:29:20.237Z,5.17
2019-01-08T18:31:49.507Z,11.57
2019-01-08T18:34:18.995Z,8.03
2019-01-08T18:36:48.249Z,4.33
2019-01-08T18:39:17.762Z,4.60
2019-01-08T18:41:48.425Z,5.33
2019-01-08T18:44:17.838Z,4.73
2019-01-08T18:46:47.111Z,5.80
2019-01-08T18:49:19.094Z,4.37
2019-01-08T18:51:48.695Z,6.23
2019-01-08T18:54:18.345Z,7.33
2019-01-08T18:56:47.778Z,6.40
2019-01-08T18:59:17.062Z,8.13
2019-01-08T19:01:46.315Z,8.93
2019-01-08T19:04:15.723Z,12.60
2019-01-08T19:06:45.037Z,4.80
2019-01-08T19:09:26.052Z,7.83
2019-01-08T19:11:55.752Z,6.33
2019-01-08T19:14:28.234Z,7.00
2019-01-08T19:16:57.537Z,6.50
2019-01-08T19:19:26.905Z,8.03
2019-01-08T19:21:56.144Z,5.90
2019-01-08T19:24:25.428Z,14.50
2019-01-08T19:26:54.703Z,7.93
2019-01-08T19:29:24.223Z,11.67
2019-01-08T19:31:53.512Z,8.07
2019-01-08T19:34:22.809Z,14.73
2019-01-08T19:36:52.234Z,11.43
2019-01-08T19:39:21.740Z,8.43
2019-01-08T19:41:51.220Z,5.47
2019-01-08T19:44:20.719Z,8.93
2019-01-08T19:46:50.246Z,10.67
2019-01-08T19:49:19.683Z,10.53
2019-01-08T19:51:49.034Z,11.20
2019-01-08T19:54:18.355Z,6.37
2019-01-08T19:56:47.633Z,6.57
2019-01-08T19:59:17.020Z,9.43
2019-01-08T20:01:46.525Z,9.13
2019-01-08T20:04:17.985Z,13.63
2019-01-08T20:06:45.517Z,9.00
2019-01-08T20:09:14.829Z,8.47
2019-01-08T20:11:44.377Z,5.90
2019-01-08T20:14:13.663Z,9.80
2019-01-08T20:16:43.011Z,8.50
2019-01-08T20:19:12.627Z,9.90
2019-01-08T20:21:42.336Z,4.33
2019-01-08T20:24:15.833Z,8.20
2019-01-08T20:26:45.397Z,5.07
2019-01-08T20:29:23.123Z,6.63
2019-01-08T20:31:49.901Z,8.03
2019-01-08T20:34:26.601Z,10.13
2019-01-08T20:36:48.729Z,11.43
2019-01-08T20:39:18.040Z,10.20
2019-01-08T20:41:47.379Z,10.37
2019-01-08T20:44:16.669Z,6.60
2019-01-08T20:46:45.947Z,9.50
2019-01-08T20:49:15.275Z,6.27
2019-01-08T20:51:44.601Z,6.27
2019-01-08T20:54:13.904Z,8.20
2019-01-08T20:56:43.248Z,9.73
2019-01-08T20:59:12.556Z,4.10
2019-01-08T21:01:41.828Z,11.33
2019-01-08T21:04:11.159Z,9.90
2019-01-08T21:06:40.469Z,6.70
2019-01-08T21:09:09.767Z,6.67
2019-01-08T21:11:39.147Z,11.03
2019-01-08T21:14:08.495Z,9.67
2019-01-08T21:16:37.837Z,8.00
2019-01-08T21:19:07.119Z,8.80
2019-01-08T21:21:39.797Z,9.83
2019-01-08T21:24:09.109Z,6.67
2019-01-08T21:26:38.399Z,7.83
2019-01-08T21:29:07.697Z,8.37
2019-01-08T21:31:37.027Z,11.53
2019-01-08T21:34:06.310Z,12.60
2019-01-08T21:36:35.631Z,10.57
2019-01-08T21:39:06.308Z,9.03
2019-01-08T21:41:38.857Z,7.67
2019-01-08T21:44:05.015Z,12.13
2019-01-08T21:46:34.365Z,9.40
2019-01-08T21:49:03.737Z,5.20
2019-01-08T21:51:35.657Z,9.27
2019-01-08T21:54:05.238Z,11.27
2019-01-08T21:56:34.542Z,11.37
2019-01-08T21:59:03.869Z,8.47
2019-01-08T22:01:33.108Z,11.27
2019-01-08T22:04:02.528Z,15.83
2019-01-08T22:06:31.945Z,11.37
2019-01-08T22:09:01.300Z,9.43
2019-01-08T22:11:30.682Z,12.33
2019-01-08T22:13:59.995Z,6.83
2019-01-08T22:16:29.277Z,13.87
2019-01-08T22:18:58.583Z,11.77
2019-01-08T22:21:27.845Z,12.87
2019-01-08T22:23:57.154Z,8.33
2019-01-08T22:26:26.431Z,8.77
2019-01-08T22:28:55.738Z,15.23
2019-01-08T22:31:24.999Z,10.10
2019-01-08T22:33:54.323Z,7.53
2019-01-08T22:36:23.622Z,5.53
2019-01-08T22:38:52.899Z,7.03
2019-01-08T22:41:22.231Z,9.33
2019-01-08T22:43:51.541Z,13.23
2019-01-08T22:46:20.921Z,8.93
2019-01-08T22:48:50.307Z,13.63
2019-01-08T22:51:19.665Z,15.47
2019-01-08T22:53:48.995Z,15.20
2019-01-08T22:56:18.293Z,9.57
2019-01-08T22:58:47.535Z,9.50
2019-01-08T23:01:20.633Z,10.20
2019-01-08T23:03:49.937Z,9.80
2019-01-08T23:06:19.262Z,4.97
2019-01-08T23:08:48.569Z,12.67
2019-01-08T23:11:17.830Z,9.37
2019-01-08T23:13:47.196Z,11.60
2019-01-08T23:16:16.480Z,8.60
2019-01-08T23:18:45.809Z,10.13
2019-01-08T23:21:15.148Z,7.47
2019-01-08T23:23:44.481Z,11.70
2019-01-08T23:26:13.727Z,10.23
2019-01-08T23:28:43.146Z,10.83
2019-01-08T23:31:12.440Z,6.97
2019-01-08T23:33:41.811Z,8.53
2019-01-08T23:36:11.097Z,10.50
2019-01-08T23:38:40.391Z,8.50
2019-01-08T23:41:09.668Z,7.87
2019-01-08T23:43:38.970Z,18.33
2019-01-08T23:46:08.237Z,7.80
2019-01-08T23:48:37.548Z,7.63
2019-01-08T23:51:06.839Z,7.60
2019-01-08T23:53:39.021Z,4.43
2019-01-08T23:56:09.123Z,12.70
2019-01-08T23:58:38.424Z,8.17
